Arlington, Kansas
Current Conditions -  °F | °C
As of 11:52 AM on Sunday 25 Jan 2015 (Local Time) from KHUT Reporting Station
Overcast Overcast  
Wind Chill: 51°   Ceiling: 5500
Heat Index: 51°   Visibility: 10mi
Dew Point: 28°   Wind: 28mph
Humidity: 41%   Direction: 330°NNW
Pressure: 30"   Gusts: 39mph
Location:  37.9°N, 98.18°W
Report Text: KHUT 251752Z 33024G34KT 10SM FEW043 OVC055 11/M02 A3000 RMK AO2 PK WND 32038/1741 SLP152 T01061022 10106 20067 53023
Loading
Personal Weather Stations






























Interactive Weather Map New forecast layout! Learn more

10-Day Weather Forecast

Advertisements
Track Severe Weather on mobile